sensor_id;sensor_type;location;lat;lon;timestamp;pressure;altitude;pressure_sealevel;temperature;humidity
55187;BME280;55457;52.002;5.464;2023-03-13T00:00:49;99931.75;;;21.18;39.78
55187;BME280;55457;52.002;5.464;2023-03-13T00:03:14;99932.56;;;21.19;39.62
55187;BME280;55457;52.002;5.464;2023-03-13T00:05:39;99921.72;;;21.19;39.60
55187;BME280;55457;52.002;5.464;2023-03-13T00:08:05;99916.31;;;21.19;39.54
55187;BME280;55457;52.002;5.464;2023-03-13T00:10:30;99916.31;;;21.19;39.67
55187;BME280;55457;52.002;5.464;2023-03-13T00:12:55;99901.69;;;21.20;39.59
55187;BME280;55457;52.002;5.464;2023-03-13T00:15:20;99896.28;;;21.20;39.71
55187;BME280;55457;52.002;5.464;2023-03-13T00:17:46;99899.00;;;21.20;39.74
55187;BME280;55457;52.002;5.464;2023-03-13T00:20:11;99899.53;;;21.22;39.91
55187;BME280;55457;52.002;5.464;2023-03-13T00:22:36;99889.50;;;21.22;39.96
55187;BME280;55457;52.002;5.464;2023-03-13T00:25:02;99882.44;;;21.21;39.90
55187;BME280;55457;52.002;5.464;2023-03-13T00:27:27;99875.13;;;21.22;39.79
55187;BME280;55457;52.002;5.464;2023-03-13T00:29:55;99871.34;;;21.23;39.93
55187;BME280;55457;52.002;5.464;2023-03-13T00:32:21;99863.19;;;21.23;39.99
55187;BME280;55457;52.002;5.464;2023-03-13T00:34:46;99853.97;;;21.24;39.89
55187;BME280;55457;52.002;5.464;2023-03-13T00:37:11;99843.94;;;21.24;40.03
55187;BME280;55457;52.002;5.464;2023-03-13T00:39:36;99839.38;;;21.25;39.90
55187;BME280;55457;52.002;5.464;2023-03-13T00:42:01;99823.13;;;21.25;40.13
55187;BME280;55457;52.002;5.464;2023-03-13T00:44:28;99816.59;;;21.26;39.99
55187;BME280;55457;52.002;5.464;2023-03-13T00:46:53;99810.91;;;21.27;39.89
55187;BME280;55457;52.002;5.464;2023-03-13T00:49:18;99806.28;;;21.28;39.95
55187;BME280;55457;52.002;5.464;2023-03-13T00:51:43;99802.78;;;21.27;39.98
55187;BME280;55457;52.002;5.464;2023-03-13T00:54:08;99797.06;;;21.29;40.10
55187;BME280;55457;52.002;5.464;2023-03-13T00:56:34;99780.81;;;21.29;40.10
55187;BME280;55457;52.002;5.464;2023-03-13T00:58:59;99788.72;;;21.30;40.15
55187;BME280;55457;52.002;5.464;2023-03-13T01:01:26;99781.41;;;21.31;40.15
55187;BME280;55457;52.002;5.464;2023-03-13T01:03:52;99774.06;;;21.31;40.05
55187;BME280;55457;52.002;5.464;2023-03-13T01:06:19;99762.44;;;21.31;40.08
55187;BME280;55457;52.002;5.464;2023-03-13T01:08:45;99759.44;;;21.32;40.18
55187;BME280;55457;52.002;5.464;2023-03-13T01:11:11;99746.69;;;21.33;40.11
55187;BME280;55457;52.002;5.464;2023-03-13T01:13:37;99751.03;;;21.34;40.11
55187;BME280;55457;52.002;5.464;2023-03-13T01:16:03;99745.59;;;21.34;40.32
55187;BME280;55457;52.002;5.464;2023-03-13T01:18:29;99741.78;;;21.35;40.24
55187;BME280;55457;52.002;5.464;2023-03-13T01:20:54;99730.94;;;21.35;40.08
55187;BME280;55457;52.002;5.464;2023-03-13T01:23:19;99732.06;;;21.34;40.12
55187;BME280;55457;52.002;5.464;2023-03-13T01:25:44;99730.94;;;21.35;40.13
55187;BME280;55457;52.002;5.464;2023-03-13T01:28:09;99725.53;;;21.35;40.15
55187;BME280;55457;52.002;5.464;2023-03-13T01:30:35;99710.13;;;21.35;40.20
55187;BME280;55457;52.002;5.464;2023-03-13T01:33:00;99705.50;;;21.36;40.13
55187;BME280;55457;52.002;5.464;2023-03-13T01:35:26;99693.00;;;21.35;40.13
55187;BME280;55457;52.002;5.464;2023-03-13T01:37:51;99686.53;;;21.36;40.25
55187;BME280;55457;52.002;5.464;2023-03-13T01:40:16;99688.44;;;21.35;40.13
55187;BME280;55457;52.002;5.464;2023-03-13T01:42:51;99681.38;;;21.34;40.22
55187;BME280;55457;52.002;5.464;2023-03-13T01:48:00;99674.03;;;21.35;40.37
55187;BME280;55457;52.002;5.464;2023-03-13T01:50:26;99655.06;;;21.35;40.51
55187;BME280;55457;52.002;5.464;2023-03-13T01:52:51;99656.72;;;21.36;40.41
55187;BME280;55457;52.002;5.464;2023-03-13T01:55:16;99652.09;;;21.36;40.26
55187;BME280;55457;52.002;5.464;2023-03-13T01:57:43;99640.97;;;21.38;40.37
55187;BME280;55457;52.002;5.464;2023-03-13T02:00:12;99645.31;;;21.39;40.26
55187;BME280;55457;52.002;5.464;2023-03-13T02:02:40;99632.56;;;21.40;40.40
55187;BME280;55457;52.002;5.464;2023-03-13T02:05:06;99624.16;;;21.41;40.25
55187;BME280;55457;52.002;5.464;2023-03-13T02:07:33;99622.25;;;21.42;40.61
55187;BME280;55457;52.002;5.464;2023-03-13T02:10:00;99621.97;;;21.43;40.34
55187;BME280;55457;52.002;5.464;2023-03-13T02:12:28;99601.91;;;21.44;40.64
55187;BME280;55457;52.002;5.464;2023-03-13T02:14:55;99599.19;;;21.44;40.37
55187;BME280;55457;52.002;5.464;2023-03-13T02:17:20;99586.19;;;21.46;40.28
55187;BME280;55457;52.002;5.464;2023-03-13T02:19:50;99580.78;;;21.46;40.27
55187;BME280;55457;52.002;5.464;2023-03-13T02:22:31;99568.03;;;21.47;40.45
55187;BME280;55457;52.002;5.464;2023-03-13T02:25:01;99573.16;;;21.48;40.54
55187;BME280;55457;52.002;5.464;2023-03-13T02:27:30;99562.31;;;21.48;40.52
55187;BME280;55457;52.002;5.464;2023-03-13T02:29:55;99556.91;;;21.48;40.65
55187;BME280;55457;52.002;5.464;2023-03-13T02:32:21;99555.81;;;21.49;40.41
55187;BME280;55457;52.002;5.464;2023-03-13T02:34:48;99542.25;;;21.49;40.58
55187;BME280;55457;52.002;5.464;2023-03-13T02:37:15;99544.16;;;21.49;40.59
55187;BME280;55457;52.002;5.464;2023-03-13T02:39:42;99551.19;;;21.50;40.57
55187;BME280;55457;52.002;5.464;2023-03-13T02:42:09;99534.13;;;21.49;40.77
55187;BME280;55457;52.002;5.464;2023-03-13T02:44:39;99537.63;;;21.50;40.68
55187;BME280;55457;52.002;5.464;2023-03-13T02:47:04;99541.16;;;21.50;40.61
55187;BME280;55457;52.002;5.464;2023-03-13T02:49:30;99538.72;;;21.49;40.45
55187;BME280;55457;52.002;5.464;2023-03-13T02:51:57;99533.03;;;21.50;40.68
55187;BME280;55457;52.002;5.464;2023-03-13T02:54:25;99533.03;;;21.50;40.92
55187;BME280;55457;52.002;5.464;2023-03-13T02:56:54;99524.88;;;21.50;40.77
55187;BME280;55457;52.002;5.464;2023-03-13T02:59:19;99533.84;;;21.51;40.93
55187;BME280;55457;52.002;5.464;2023-03-13T03:01:45;99533.03;;;21.50;40.85
55187;BME280;55457;52.002;5.464;2023-03-13T03:04:10;99557.41;;;21.50;40.88
55187;BME280;55457;52.002;5.464;2023-03-13T03:06:35;99541.16;;;21.50;41.15
55187;BME280;55457;52.002;5.464;2023-03-13T03:09:01;99533.03;;;21.50;41.09
55187;BME280;55457;52.002;5.464;2023-03-13T03:11:26;99526.78;;;21.50;41.40
55187;BME280;55457;52.002;5.464;2023-03-13T03:13:51;99536.81;;;21.49;41.18
55187;BME280;55457;52.002;5.464;2023-03-13T03:16:16;99542.25;;;21.49;41.26
55187;BME280;55457;52.002;5.464;2023-03-13T03:18:45;99536.81;;;21.49;41.62
55187;BME280;55457;52.002;5.464;2023-03-13T03:21:10;99528.69;;;21.49;41.36
55187;BME280;55457;52.002;5.464;2023-03-13T03:23:36;99536.03;;;21.49;41.57
55187;BME280;55457;52.002;5.464;2023-03-13T03:26:02;99529.78;;;21.48;41.60
55187;BME280;55457;52.002;5.464;2023-03-13T03:28:27;99528.19;;;21.47;41.57
55187;BME280;55457;52.002;5.464;2023-03-13T03:30:53;99520.03;;;21.47;41.81
55187;BME280;55457;52.002;5.464;2023-03-13T03:33:19;99520.03;;;21.47;41.96
55187;BME280;55457;52.002;5.464;2023-03-13T03:35:44;99516.25;;;21.48;41.98
55187;BME280;55457;52.002;5.464;2023-03-13T03:38:11;99513.53;;;21.48;41.75
55187;BME280;55457;52.002;5.464;2023-03-13T03:40:36;99509.22;;;21.47;41.79
55187;BME280;55457;52.002;5.464;2023-03-13T03:43:01;99511.63;;;21.49;41.90
55187;BME280;55457;52.002;5.464;2023-03-13T03:45:27;99516.25;;;21.48;41.92
55187;BME280;55457;52.002;5.464;2023-03-13T03:47:52;99501.06;;;21.47;41.94
55187;BME280;55457;52.002;5.464;2023-03-13T03:50:17;99503.78;;;21.47;41.99
55187;BME280;55457;52.002;5.464;2023-03-13T03:52:42;99506.19;;;21.49;42.22
55187;BME280;55457;52.002;5.464;2023-03-13T03:55:08;99495.66;;;21.47;42.28
55187;BME280;55457;52.002;5.464;2023-03-13T03:57:33;99487.22;;;21.49;42.37
55187;BME280;55457;52.002;5.464;2023-03-13T03:59:58;99491.84;;;21.48;42.38
55187;BME280;55457;52.002;5.464;2023-03-13T04:02:23;99490.22;;;21.47;42.33
55187;BME280;55457;52.002;5.464;2023-03-13T04:04:49;99497.25;;;21.48;42.39
55187;BME280;55457;52.002;5.464;2023-03-13T04:07:14;99494.84;;;21.47;42.60
55187;BME280;55457;52.002;5.464;2023-03-13T04:09:39;99479.69;;;21.46;42.65
55187;BME280;55457;52.002;5.464;2023-03-13T04:12:04;99480.50;;;21.46;42.50
55187;BME280;55457;52.002;5.464;2023-03-13T04:14:30;99490.22;;;21.47;42.81
55187;BME280;55457;52.002;5.464;2023-03-13T04:16:55;99486.16;;;21.45;42.73
55187;BME280;55457;52.002;5.464;2023-03-13T04:19:20;99486.16;;;21.45;42.91
55187;BME280;55457;52.002;5.464;2023-03-13T04:21:45;99484.56;;;21.44;43.04
55187;BME280;55457;52.002;5.464;2023-03-13T04:24:10;99467.50;;;21.43;43.06
55187;BME280;55457;52.002;5.464;2023-03-13T04:26:36;99472.09;;;21.43;43.15
55187;BME280;55457;52.002;5.464;2023-03-13T04:29:01;99459.88;;;21.45;42.98
55187;BME280;55457;52.002;5.464;2023-03-13T04:31:26;99462.06;;;21.43;42.97
55187;BME280;55457;52.002;5.464;2023-03-13T04:33:51;99451.22;;;21.43;43.00
55187;BME280;55457;52.002;5.464;2023-03-13T04:36:17;99442.28;;;21.43;43.10
55187;BME280;55457;52.002;5.464;2023-03-13T04:38:42;99445.81;;;21.43;43.06
55187;BME280;55457;52.002;5.464;2023-03-13T04:41:07;99445.00;;;21.43;43.13
55187;BME280;55457;52.002;5.464;2023-03-13T04:43:32;99442.81;;;21.45;43.05
55187;BME280;55457;52.002;5.464;2023-03-13T04:45:57;99429.53;;;21.43;43.17
55187;BME280;55457;52.002;5.464;2023-03-13T04:48:23;99442.28;;;21.43;43.31
55187;BME280;55457;52.002;5.464;2023-03-13T04:50:48;99431.16;;;21.44;43.17
55187;BME280;55457;52.002;5.464;2023-03-13T04:53:13;99430.34;;;21.44;43.23
55187;BME280;55457;52.002;5.464;2023-03-13T04:55:39;99426.03;;;21.43;43.38
55187;BME280;55457;52.002;5.464;2023-03-13T04:58:04;99434.47;;;21.41;43.34
55187;BME280;55457;52.002;5.464;2023-03-13T05:00:29;99424.13;;;21.43;43.43
55187;BME280;55457;52.002;5.464;2023-03-13T05:02:54;99427.94;;;21.42;43.35
55187;BME280;55457;52.002;5.464;2023-03-13T05:05:20;99429.03;;;21.41;43.69
55187;BME280;55457;52.002;5.464;2023-03-13T05:07:45;99439.88;;;21.41;43.46
55187;BME280;55457;52.002;5.464;2023-03-13T05:10:10;99415.47;;;21.41;43.52
55187;BME280;55457;52.002;5.464;2023-03-13T05:12:35;99423.63;;;21.41;43.69
55187;BME280;55457;52.002;5.464;2023-03-13T05:15:00;99419.25;;;21.40;43.63
55187;BME280;55457;52.002;5.464;2023-03-13T05:17:26;99422.81;;;21.41;43.65
55187;BME280;55457;52.002;5.464;2023-03-13T05:19:51;99406.53;;;21.41;43.85
55187;BME280;55457;52.002;5.464;2023-03-13T05:22:16;99413.84;;;21.40;43.64
55187;BME280;55457;52.002;5.464;2023-03-13T05:24:41;99403.00;;;21.40;43.94
55187;BME280;55457;52.002;5.464;2023-03-13T05:27:06;99416.56;;;21.40;43.65
55187;BME280;55457;52.002;5.464;2023-03-13T05:29:32;99424.69;;;21.40;43.84
55187;BME280;55457;52.002;5.464;2023-03-13T05:31:57;99431.50;;;21.38;43.71
55187;BME280;55457;52.002;5.464;2023-03-13T05:34:22;99415.75;;;21.40;43.67
55187;BME280;55457;52.002;5.464;2023-03-13T05:36:47;99416.03;;;21.38;43.70
55187;BME280;55457;52.002;5.464;2023-03-13T05:39:13;99419.56;;;21.39;43.88
55187;BME280;55457;52.002;5.464;2023-03-13T05:41:38;99411.41;;;21.39;43.70
55187;BME280;55457;52.002;5.464;2023-03-13T05:44:03;99413.31;;;21.38;43.73
55187;BME280;55457;52.002;5.464;2023-03-13T05:46:29;99423.38;;;21.38;43.72
55187;BME280;55457;52.002;5.464;2023-03-13T05:48:55;99419.84;;;21.37;43.61
55187;BME280;55457;52.002;5.464;2023-03-13T05:51:20;99409.00;;;21.37;43.96
55187;BME280;55457;52.002;5.464;2023-03-13T05:53:45;99398.16;;;21.37;43.78
55187;BME280;55457;52.002;5.464;2023-03-13T05:56:10;99411.16;;;21.35;43.92
55187;BME280;55457;52.002;5.464;2023-03-13T05:58:35;99389.50;;;21.35;43.97
55187;BME280;55457;52.002;5.464;2023-03-13T06:01:05;99387.88;;;21.34;43.93
55187;BME280;55457;52.002;5.464;2023-03-13T06:03:30;99386.28;;;21.33;43.88
55187;BME280;55457;52.002;5.464;2023-03-13T06:05:58;99389.78;;;21.33;43.79
55187;BME280;55457;52.002;5.464;2023-03-13T06:08:23;99387.88;;;21.34;43.76
55187;BME280;55457;52.002;5.464;2023-03-13T06:10:48;99371.63;;;21.34;43.76
55187;BME280;55457;52.002;5.464;2023-03-13T06:13:13;99384.06;;;21.35;43.89
55187;BME280;55457;52.002;5.464;2023-03-13T06:15:39;99371.63;;;21.34;44.03
55187;BME280;55457;52.002;5.464;2023-03-13T06:18:04;99356.16;;;21.34;43.96
55187;BME280;55457;52.002;5.464;2023-03-13T06:20:29;99373.25;;;21.35;43.94
55187;BME280;55457;52.002;5.464;2023-03-13T06:22:54;99374.63;;;21.32;43.88
55187;BME280;55457;52.002;5.464;2023-03-13T06:25:19;99389.50;;;21.35;43.86
55187;BME280;55457;52.002;5.464;2023-03-13T06:27:45;99380.84;;;21.33;43.98
55187;BME280;55457;52.002;5.464;2023-03-13T06:30:10;99373.53;;;21.33;43.81
55187;BME280;55457;52.002;5.464;2023-03-13T06:32:35;99374.34;;;21.34;44.13
55187;BME280;55457;52.002;5.464;2023-03-13T06:35:01;99381.38;;;21.35;44.28
55187;BME280;55457;52.002;5.464;2023-03-13T06:37:26;99372.44;;;21.34;44.03
55187;BME280;55457;52.002;5.464;2023-03-13T06:39:51;99377.03;;;21.34;44.09
55187;BME280;55457;52.002;5.464;2023-03-13T06:42:16;99389.78;;;21.33;44.15
55187;BME280;55457;52.002;5.464;2023-03-13T06:44:41;99387.88;;;21.34;43.98
55187;BME280;55457;52.002;5.464;2023-03-13T06:47:07;99376.25;;;21.33;44.17
55187;BME280;55457;52.002;5.464;2023-03-13T06:49:32;99382.47;;;21.34;44.22
55187;BME280;55457;52.002;5.464;2023-03-13T06:51:57;99384.91;;;21.35;43.99
55187;BME280;55457;52.002;5.464;2023-03-13T06:54:23;99385.72;;;21.36;43.94
55187;BME280;55457;52.002;5.464;2023-03-13T06:56:48;99398.16;;;21.37;43.96
55187;BME280;55457;52.002;5.464;2023-03-13T06:59:13;99362.94;;;21.37;44.06
55187;BME280;55457;52.002;5.464;2023-03-13T07:01:38;99367.25;;;21.38;44.04
55187;BME280;55457;52.002;5.464;2023-03-13T07:04:04;99384.31;;;21.39;44.00
55187;BME280;55457;52.002;5.464;2023-03-13T07:06:29;99378.91;;;21.39;43.95
55187;BME280;55457;52.002;5.464;2023-03-13T07:08:54;99385.94;;;21.40;44.06
55187;BME280;55457;52.002;5.464;2023-03-13T07:11:19;99374.28;;;21.39;44.17
55187;BME280;55457;52.002;5.464;2023-03-13T07:13:44;99383.22;;;21.40;44.11
55187;BME280;55457;52.002;5.464;2023-03-13T07:16:11;99388.94;;;21.38;43.92
55187;BME280;55457;52.002;5.464;2023-03-13T07:18:37;99387.31;;;21.37;44.43
55187;BME280;55457;52.002;5.464;2023-03-13T07:21:03;99384.06;;;21.35;44.16
55187;BME280;55457;52.002;5.464;2023-03-13T07:23:29;99387.88;;;21.34;44.27
55187;BME280;55457;52.002;5.464;2023-03-13T07:25:56;99383.28;;;21.34;44.29
55187;BME280;55457;52.002;5.464;2023-03-13T07:28:21;99387.88;;;21.34;44.21
55187;BME280;55457;52.002;5.464;2023-03-13T07:30:47;99386.28;;;21.33;44.35
55187;BME280;55457;52.002;5.464;2023-03-13T07:33:12;99394.91;;;21.35;44.29
55187;BME280;55457;52.002;5.464;2023-03-13T07:35:38;99408.75;;;21.33;44.24
55187;BME280;55457;52.002;5.464;2023-03-13T07:38:03;99403.34;;;21.33;44.27
55187;BME280;55457;52.002;5.464;2023-03-13T07:40:28;99395.22;;;21.33;44.22
55187;BME280;55457;52.002;5.464;2023-03-13T07:42:53;99394.09;;;21.34;44.41
55187;BME280;55457;52.002;5.464;2023-03-13T07:45:19;99401.16;;;21.35;44.28
55187;BME280;55457;52.002;5.464;2023-03-13T07:47:44;99398.72;;;21.34;44.39
55187;BME280;55457;52.002;5.464;2023-03-13T07:50:09;99394.91;;;21.35;44.29
55187;BME280;55457;52.002;5.464;2023-03-13T07:52:34;99411.16;;;21.35;44.41
55187;BME280;55457;52.002;5.464;2023-03-13T07:55:00;99396.56;;;21.36;44.30
55187;BME280;55457;52.002;5.464;2023-03-13T07:57:25;99390.03;;;21.37;44.35
55187;BME280;55457;52.002;5.464;2023-03-13T07:59:50;99404.69;;;21.36;44.28
55187;BME280;55457;52.002;5.464;2023-03-13T08:02:15;99410.91;;;21.36;44.28
55187;BME280;55457;52.002;5.464;2023-03-13T08:04:41;99398.16;;;21.37;44.30
55187;BME280;55457;52.002;5.464;2023-03-13T08:07:09;99392.75;;;21.37;44.36
55187;BME280;55457;52.002;5.464;2023-03-13T08:09:35;99390.03;;;21.37;44.24
55187;BME280;55457;52.002;5.464;2023-03-13T08:12:00;99386.22;;;21.38;44.28
55187;BME280;55457;52.002;5.464;2023-03-13T08:14:26;99397.06;;;21.38;44.42
55187;BME280;55457;52.002;5.464;2023-03-13T08:16:51;99387.03;;;21.39;44.20
55187;BME280;55457;52.002;5.464;2023-03-13T08:19:16;99387.84;;;21.39;44.49
55187;BME280;55457;52.002;5.464;2023-03-13T08:21:42;99375.09;;;21.40;44.32
55187;BME280;55457;52.002;5.464;2023-03-13T08:24:07;99384.88;;;21.41;44.44
55187;BME280;55457;52.002;5.464;2023-03-13T08:26:33;99373.19;;;21.40;44.31
55187;BME280;55457;52.002;5.464;2023-03-13T08:29:03;99374.84;;;21.41;44.45
55187;BME280;55457;52.002;5.464;2023-03-13T08:31:36;99382.97;;;21.41;44.35
55187;BME280;55457;52.002;5.464;2023-03-13T08:34:01;99371.03;;;21.42;44.45
55187;BME280;55457;52.002;5.464;2023-03-13T08:36:31;99366.69;;;21.41;44.52
55187;BME280;55457;52.002;5.464;2023-03-13T08:38:57;99356.38;;;21.43;44.26
55187;BME280;55457;52.002;5.464;2023-03-13T08:41:23;99357.97;;;21.44;44.54
55187;BME280;55457;52.002;5.464;2023-03-13T08:43:51;99357.19;;;21.44;44.65
55187;BME280;55457;52.002;5.464;2023-03-13T08:46:17;99349.63;;;21.41;44.81
55187;BME280;55457;52.002;5.464;2023-03-13T08:48:42;99323.91;;;21.38;45.33
55187;BME280;55457;52.002;5.464;2023-03-13T08:51:11;99336.13;;;21.35;45.59
55187;BME280;55457;52.002;5.464;2023-03-13T08:53:37;99324.47;;;21.35;45.27
55187;BME280;55457;52.002;5.464;2023-03-13T08:56:03;99320.69;;;21.36;45.10
55187;BME280;55457;52.002;5.464;2023-03-13T08:58:31;99334.75;;;21.38;45.33
55187;BME280;55457;52.002;5.464;2023-03-13T09:01:06;99320.91;;;21.40;45.76
55187;BME280;55457;52.002;5.464;2023-03-13T09:03:32;99322.28;;;21.37;45.93
55187;BME280;55457;52.002;5.464;2023-03-13T09:05:58;99327.72;;;21.37;45.71
55187;BME280;55457;52.002;5.464;2023-03-13T09:08:23;99323.91;;;21.38;45.62
55187;BME280;55457;52.002;5.464;2023-03-13T09:10:58;99327.41;;;21.39;45.74
55187;BME280;55457;52.002;5.464;2023-03-13T09:13:24;99328.47;;;21.43;45.78
55187;BME280;55457;52.002;5.464;2023-03-13T09:15:56;99319.78;;;21.46;45.66
55187;BME280;55457;52.002;5.464;2023-03-13T09:18:22;99314.81;;;21.53;45.53
55187;BME280;55457;52.002;5.464;2023-03-13T09:20:48;99314.47;;;21.59;45.63
55187;BME280;55457;52.002;5.464;2023-03-13T09:23:13;99303.25;;;21.66;45.30
55187;BME280;55457;52.002;5.464;2023-03-13T09:25:39;99294.19;;;21.76;45.30
55187;BME280;55457;52.002;5.464;2023-03-13T09:28:04;99288.72;;;21.81;45.09
55187;BME280;55457;52.002;5.464;2023-03-13T09:30:29;99286.53;;;21.83;45.16
55187;BME280;55457;52.002;5.464;2023-03-13T09:32:54;99314.66;;;21.87;45.30
55187;BME280;55457;52.002;5.464;2023-03-13T09:35:20;99295.69;;;21.87;45.10
55187;BME280;55457;52.002;5.464;2023-03-13T09:37:45;99281.31;;;21.86;45.07
55187;BME280;55457;52.002;5.464;2023-03-13T09:40:13;99289.75;;;21.85;45.16
55187;BME280;55457;52.002;5.464;2023-03-13T09:42:47;99284.63;;;21.83;45.04
55187;BME280;55457;52.002;5.464;2023-03-13T09:45:15;99284.34;;;21.85;45.24
55187;BME280;55457;52.002;5.464;2023-03-13T09:47:43;99277.00;;;21.85;44.96
55187;BME280;55457;52.002;5.464;2023-03-13T09:52:38;99271.28;;;21.87;44.93
55187;BME280;55457;52.002;5.464;2023-03-13T09:55:25;99250.69;;;21.86;44.90
55187;BME280;55457;52.002;5.464;2023-03-13T09:57:53;99258.03;;;21.85;44.76
55187;BME280;55457;52.002;5.464;2023-03-13T10:05:37;99261.78;;;22.08;44.98
55187;BME280;55457;52.002;5.464;2023-03-13T10:08:12;99248.19;;;22.13;44.78
55187;BME280;55457;52.002;5.464;2023-03-13T10:10:41;99234.31;;;22.15;44.91
55187;BME280;55457;52.002;5.464;2023-03-13T10:13:19;99227.72;;;22.21;44.54
55187;BME280;55457;52.002;5.464;2023-03-13T10:15:54;99228.94;;;22.29;44.65
55187;BME280;55457;52.002;5.464;2023-03-13T10:18:21;99233.00;;;22.31;44.02
55187;BME280;55457;52.002;5.464;2023-03-13T10:20:50;99245.84;;;22.26;44.03
55187;BME280;55457;52.002;5.464;2023-03-13T10:25:41;99223.59;;;22.24;44.24
55187;BME280;55457;52.002;5.464;2023-03-13T10:28:10;99230.72;;;22.20;43.96
55187;BME280;55457;52.002;5.464;2023-03-13T10:30:36;99236.44;;;22.18;44.28
55187;BME280;55457;52.002;5.464;2023-03-13T10:35:35;99223.16;;;22.17;44.07
55187;BME280;55457;52.002;5.464;2023-03-13T10:38:07;99241.13;;;22.12;44.08
55187;BME280;55457;52.002;5.464;2023-03-13T10:40:33;99222.97;;;22.08;44.00
55187;BME280;55457;52.002;5.464;2023-03-13T10:43:05;99237.38;;;22.08;44.02
55187;BME280;55457;52.002;5.464;2023-03-13T10:45:33;99228.13;;;22.09;43.91
55187;BME280;55457;52.002;5.464;2023-03-13T10:48:00;99237.91;;;22.10;44.01
55187;BME280;55457;52.002;5.464;2023-03-13T10:50:26;99224.84;;;22.12;43.85
55187;BME280;55457;52.002;5.464;2023-03-13T10:52:52;99217.25;;;22.14;43.72
55187;BME280;55457;52.002;5.464;2023-03-13T10:55:19;99218.63;;;22.31;43.67
55187;BME280;55457;52.002;5.464;2023-03-13T10:57:56;99196.03;;;22.35;43.63
55187;BME280;55457;52.002;5.464;2023-03-13T11:02:53;99190.78;;;22.39;43.38
55187;BME280;55457;52.002;5.464;2023-03-13T11:07:50;99189.66;;;22.59;43.20
55187;BME280;55457;52.002;5.464;2023-03-13T11:12:45;99146.25;;;22.86;42.91
55187;BME280;55457;52.002;5.464;2023-03-13T11:15:15;99172.66;;;23.00;42.31
55187;BME280;55457;52.002;5.464;2023-03-13T11:17:41;99199.63;;;23.10;42.31
55187;BME280;55457;52.002;5.464;2023-03-13T11:25:19;99176.47;;;23.26;41.74
55187;BME280;55457;52.002;5.464;2023-03-13T11:27:57;99180.13;;;23.35;41.62
55187;BME280;55457;52.002;5.464;2023-03-13T11:35:46;99180.22;;;23.44;41.15
55187;BME280;55457;52.002;5.464;2023-03-13T11:41:01;99187.34;;;23.40;40.97
55187;BME280;55457;52.002;5.464;2023-03-13T11:51:36;99175.47;;;23.36;41.71
55187;BME280;55457;52.002;5.464;2023-03-13T11:56:55;99152.22;;;23.16;41.68
55187;BME280;55457;52.002;5.464;2023-03-13T12:01:48;99175.06;;;23.01;42.24
55187;BME280;55457;52.002;5.464;2023-03-13T12:04:18;99165.31;;;23.00;42.36
55187;BME280;55457;52.002;5.464;2023-03-13T12:06:49;99175.16;;;22.96;42.48
55187;BME280;55457;52.002;5.464;2023-03-13T12:12:01;99160.47;;;23.11;42.10
55187;BME280;55457;52.002;5.464;2023-03-13T12:14:45;99155.75;;;23.16;42.07
55187;BME280;55457;52.002;5.464;2023-03-13T12:17:15;99157.34;;;23.17;42.22
55187;BME280;55457;52.002;5.464;2023-03-13T12:19:48;99148.81;;;23.24;42.25
55187;BME280;55457;52.002;5.464;2023-03-13T12:22:17;99155.34;;;23.37;42.17
55187;BME280;55457;52.002;5.464;2023-03-13T12:24:49;99138.22;;;23.36;42.14
55187;BME280;55457;52.002;5.464;2023-03-13T12:27:35;99141.31;;;23.43;42.05
55187;BME280;55457;52.002;5.464;2023-03-13T12:34:54;99134.97;;;23.76;41.40
55187;BME280;55457;52.002;5.464;2023-03-13T12:39:56;99139.91;;;23.96;40.94
55187;BME280;55457;52.002;5.464;2023-03-13T12:44:56;99136.56;;;23.99;40.86
55187;BME280;55457;52.002;5.464;2023-03-13T12:47:26;99127.81;;;24.02;40.84
55187;BME280;55457;52.002;5.464;2023-03-13T12:52:31;99126.44;;;24.13;40.77
55187;BME280;55457;52.002;5.464;2023-03-13T13:00:14;99096.25;;;24.24;40.50
55187;BME280;55457;52.002;5.464;2023-03-13T13:02:40;99115.91;;;24.20;40.69
55187;BME280;55457;52.002;5.464;2023-03-13T13:05:15;99107.16;;;24.24;40.70
55187;BME280;55457;52.002;5.464;2023-03-13T13:07:43;99097.06;;;24.24;40.85
55187;BME280;55457;52.002;5.464;2023-03-13T13:10:17;99087.56;;;24.21;40.90
55187;BME280;55457;52.002;5.464;2023-03-13T13:12:45;99092.09;;;24.26;40.69
55187;BME280;55457;52.002;5.464;2023-03-13T13:15:18;99089.09;;;24.28;40.98
55187;BME280;55457;52.002;5.464;2023-03-13T13:17:46;99081.84;;;24.23;40.94
55187;BME280;55457;52.002;5.464;2023-03-13T13:22:50;99077.63;;;24.17;40.99
55187;BME280;55457;52.002;5.464;2023-03-13T13:32:41;99078.59;;;24.12;41.22
55187;BME280;55457;52.002;5.464;2023-03-13T13:37:32;99076.16;;;24.11;41.46
55187;BME280;55457;52.002;5.464;2023-03-13T13:42:56;99078.63;;;24.21;40.84
55187;BME280;55457;52.002;5.464;2023-03-13T13:47:49;99070.31;;;24.26;40.88
55187;BME280;55457;52.002;5.464;2023-03-13T13:52:43;99060.75;;;24.29;40.91
55187;BME280;55457;52.002;5.464;2023-03-13T13:57:46;99061.13;;;24.36;40.74
55187;BME280;55457;52.002;5.464;2023-03-13T14:02:45;99063.09;;;24.44;40.44
55187;BME280;55457;52.002;5.464;2023-03-13T14:05:30;99059.44;;;24.49;40.24
55187;BME280;55457;52.002;5.464;2023-03-13T14:08:03;99052.22;;;24.53;40.26
55187;BME280;55457;52.002;5.464;2023-03-13T14:10:39;99056.25;;;24.55;40.11
55187;BME280;55457;52.002;5.464;2023-03-13T14:13:10;99059.97;;;24.59;40.22
55187;BME280;55457;52.002;5.464;2023-03-13T14:15:36;99054.66;;;24.63;40.08
55187;BME280;55457;52.002;5.464;2023-03-13T14:23:27;99049.25;;;24.71;39.66
55187;BME280;55457;52.002;5.464;2023-03-13T14:25:52;99018.69;;;24.75;39.62
55187;BME280;55457;52.002;5.464;2023-03-13T14:28:21;99028.13;;;24.77;39.46
55187;BME280;55457;52.002;5.464;2023-03-13T14:30:48;99027.50;;;24.80;39.44
55187;BME280;55457;52.002;5.464;2023-03-13T14:33:13;99021.72;;;24.82;39.03
55187;BME280;55457;52.002;5.464;2023-03-13T14:35:39;99011.94;;;24.81;39.13
55187;BME280;55457;52.002;5.464;2023-03-13T14:38:05;99009.69;;;24.83;39.14